KSTL/STL METAR and TAF weather

Enter ICAO airport designator
Station Type Date Time Source
KSTL METAR 2017/05/23 02:51 UTC NOAA

KSTL 230251Z 16006KT 10SM BKN140 BKN250 22/09 A2995 RMK AO2 SLP132 T02220089 51000


Station Type Date Time Source
KSTL Decoded METAR 2017/05/23 02:51 UTC NOAA

LAMBERT-ST LOUIS INTERNATIONAL AIRPORT , MO, United States (KSTL) 38-45N 90-22W 171M
May 22, 2017 - 10:51 PM EDT / 2017.05.23 0251 UTC
Wind: from the SSE (160 degrees) at 7 MPH (6 KT):0
Visibility: 10 mile(s):0
Sky conditions: mostly cloudy
Temperature: 72.0 F (22.2 C)
Dew Point: 48.0 F (8.9 C)
Relative Humidity: 42%
Pressure (altimeter): 29.95 in. Hg (1014 hPa)
Pressure tendency: 0.00 inches (0.0 hPa) higher than three hours ago
ob: KSTL 230251Z 16006KT 10SM BKN140 BKN250 22/09 A2995 RMK AO2 SLP132 T02220089 51000
cycle: 3

Station Type Date Time Source
KSTL TAF 2017/05/23 03:57 UTC NOAA

TAF
AMD KSTL 230254Z 2303/2406 VRB04KT P6SM SCT060 BKN150
FM231300 15004KT P6SM VCSH BKN080
FM231900 28004KT 6SM -SHRA VCTS BKN045CB
FM240000 33004KT P6SM VCSH BKN035


Example: see airport list